Terminal Aerodrome Forecast
Issued by NWS

Home | Current Version | Previous Version | Text Only | Print | Product List | Glossary On
Versions: 1 2 3 4 5 6 7 8 9 10 11 12 13 14 15 16 17 18 19 20 21 22 23 24
000
FTUS45 KREV 302320
TAFTVL
TAF
KTVL 302320Z 0100/0124 20017G30KT P6SM SCT130 WS020/24040KT
     FM010400 20012G20KT P6SM SKC WS020/25045KT
     FM011800 20010G18KT P6SM SKC=

USA.gov is the U.S. government's official web portal to all federal, state and local government web resources and services.